Van Buren Bay, New York
Current Conditions -  °F | °C
As of 9:53 PM on Wednesday 26 Nov 2014 (Local Time) from KDKK Reporting Station
Light Snow Light Snow  
Wind Chill: 23°   Ceiling: 1400
Heat Index: 31°   Visibility: 9mi
Dew Point: 27°   Wind: 9mph
Humidity: 85%   Direction: 40°NE
Pressure: 30.04"   Gusts: NA
Location:  42.4464°N, 79.4226°W
Report Text: KDKK 270253Z AUTO 04008KT 9SM -SN OVC014 M01/M03 A3004 RMK AO2 SNB30 SLP181 P0000 60000 T10061028 53000
Loading
Personal Weather Stations






























Interactive Weather Map New forecast layout! Learn more

10-Day Weather Forecast

Advertisements
Track Severe Weather on mobile